createdAt,value
2019-01-17T14:23:08.813Z,81.42
2019-01-17T14:27:14.103Z,80.18
2019-01-17T14:31:18.281Z,80.70
2019-01-17T14:35:21.998Z,80.03
2019-01-17T14:39:25.691Z,80.44
2019-01-17T14:43:29.359Z,80.45
2019-01-17T14:47:32.999Z,81.13
2019-01-17T14:51:36.694Z,81.71
2019-01-17T14:55:40.349Z,82.21
2019-01-17T14:59:44.368Z,81.58
2019-01-17T15:03:48.132Z,82.23
2019-01-17T15:07:51.774Z,82.55
2019-01-17T15:11:55.471Z,82.76
2019-01-17T15:15:59.136Z,81.87
2019-01-17T15:20:02.790Z,82.93
2019-01-17T15:24:06.553Z,83.08
2019-01-17T15:28:10.455Z,82.60
2019-01-17T15:32:14.099Z,82.71
2019-01-17T15:36:17.794Z,81.93
2019-01-17T15:40:31.562Z,81.49
2019-01-17T15:44:35.604Z,82.48
2019-01-17T15:48:39.274Z,81.61
2019-01-17T15:52:42.919Z,82.46
2019-01-17T15:56:46.600Z,82.07
2019-01-17T16:00:50.250Z,83.07
2019-01-17T16:04:53.917Z,83.00
2019-01-17T16:08:57.692Z,83.30
2019-01-17T16:13:01.318Z,83.13
2019-01-17T16:17:05.003Z,81.59
2019-01-17T16:21:08.664Z,82.14
2019-01-17T16:25:13.281Z,81.63
2019-01-17T16:29:16.979Z,82.28
2019-01-17T16:33:20.626Z,81.90
2019-01-17T16:37:24.283Z,81.49
2019-01-17T16:41:27.983Z,80.73
2019-01-17T16:45:35.470Z,80.43
2019-01-17T16:49:37.019Z,81.13
2019-01-17T16:53:40.676Z,80.75
2019-01-17T16:57:48.877Z,81.45
2019-01-17T17:01:49.702Z,81.58
2019-01-17T17:05:53.330Z,81.58
2019-01-17T17:09:56.994Z,81.61
2019-01-17T17:14:00.767Z,81.77
2019-01-17T17:18:04.566Z,81.60
2019-01-17T17:22:22.417Z,81.96
2019-01-17T17:26:26.064Z,82.73
2019-01-17T17:30:31.716Z,82.43
2019-01-17T17:34:35.420Z,82.44
2019-01-17T17:38:39.233Z,82.68
2019-01-17T17:42:42.913Z,82.82
2019-01-17T17:46:46.594Z,83.16
2019-01-17T17:50:50.330Z,83.31
2019-01-17T17:54:54.567Z,83.46
2019-01-17T17:58:58.275Z,83.15
2019-01-17T18:03:01.978Z,83.57
2019-01-17T18:07:05.768Z,83.69
2019-01-17T18:11:09.403Z,84.07
2019-01-17T18:15:13.884Z,84.02
2019-01-17T18:19:17.583Z,84.34
2019-01-17T18:23:21.288Z,84.16
2019-01-17T18:27:25.014Z,84.57
2019-01-17T18:31:28.759Z,84.60
2019-01-17T18:35:32.500Z,84.62
2019-01-17T18:39:36.192Z,84.69
2019-01-17T18:43:39.837Z,84.88
2019-01-17T18:47:43.513Z,84.63
2019-01-17T18:51:47.181Z,84.62
2019-01-17T18:55:50.855Z,84.74
2019-01-17T18:59:54.530Z,84.73
2019-01-17T19:03:58.183Z,84.61
2019-01-17T19:08:01.901Z,84.93
2019-01-17T19:12:05.937Z,84.93
2019-01-17T19:16:09.642Z,84.86
2019-01-17T19:20:14.808Z,84.97
2019-01-17T19:24:18.551Z,85.01
2019-01-17T19:28:22.665Z,84.98
2019-01-17T19:32:26.347Z,84.84
2019-01-17T19:36:30.069Z,84.79
2019-01-17T19:40:33.726Z,84.68
2019-01-17T19:44:37.418Z,84.48
2019-01-17T19:48:41.065Z,84.40
2019-01-17T19:52:44.728Z,84.62
2019-01-17T19:56:48.421Z,84.54
2019-01-17T20:00:52.117Z,84.88
2019-01-17T20:04:57.157Z,84.63
2019-01-17T20:09:00.914Z,83.96
2019-01-17T20:13:05.327Z,84.26
2019-01-17T20:17:09.078Z,84.16
2019-01-17T20:21:12.806Z,84.29
2019-01-17T20:25:16.489Z,84.49
2019-01-17T20:29:20.207Z,84.67
2019-01-17T20:33:23.885Z,84.71
2019-01-17T20:37:27.621Z,84.66
2019-01-17T20:41:31.300Z,84.72
2019-01-17T20:45:34.957Z,84.65
2019-01-17T20:49:38.673Z,84.45
2019-01-17T20:53:42.317Z,84.50
2019-01-17T20:57:47.276Z,84.43
2019-01-17T21:02:20.912Z,84.63
2019-01-17T21:06:24.564Z,84.56
2019-01-17T21:10:28.841Z,84.52
2019-01-17T21:14:32.761Z,84.30
2019-01-17T21:18:36.436Z,84.13
2019-01-17T21:22:40.125Z,84.11
2019-01-17T21:26:44.058Z,84.06
2019-01-17T21:30:47.726Z,84.28
2019-01-17T21:34:51.414Z,84.10
2019-01-17T21:38:55.093Z,84.04
2019-01-17T21:42:59.144Z,83.93
2019-01-17T21:47:02.799Z,84.29
2019-01-17T21:51:06.428Z,83.95
2019-01-17T21:55:10.146Z,84.23
2019-01-17T21:59:14.092Z,84.27
2019-01-17T22:03:17.845Z,84.35
2019-01-17T22:07:21.611Z,84.31
2019-01-17T22:11:25.300Z,84.51
2019-01-17T22:15:28.993Z,84.75
2019-01-17T22:19:32.682Z,84.95
2019-01-17T22:23:36.332Z,85.05
2019-01-17T22:27:40.033Z,85.21
2019-01-17T22:31:43.678Z,84.96
2019-01-17T22:35:47.379Z,85.17
2019-01-17T22:39:51.556Z,85.38
2019-01-17T22:43:55.268Z,85.50
2019-01-17T22:47:58.962Z,85.38
2019-01-17T22:52:02.645Z,85.23
2019-01-17T22:56:06.285Z,85.33
2019-01-17T23:00:36.483Z,85.32
2019-01-17T23:04:40.635Z,85.45
2019-01-17T23:08:44.307Z,85.18
2019-01-17T23:12:47.963Z,84.84
2019-01-17T23:16:51.628Z,84.97
2019-01-17T23:20:55.270Z,84.94
2019-01-17T23:24:59.013Z,84.87
2019-01-17T23:29:02.735Z,84.89
2019-01-17T23:33:06.370Z,85.16
2019-01-17T23:37:10.593Z,85.33
2019-01-17T23:41:14.284Z,85.40
2019-01-17T23:45:17.965Z,85.35
2019-01-17T23:49:21.658Z,85.13
2019-01-17T23:53:25.337Z,85.28
2019-01-17T23:57:29.140Z,85.01
